sensor_id;sensor_type;location;lat;lon;timestamp;P1;durP1;ratioP1;P2;durP2;ratioP2
4519;SDS011;2272;49.226;8.108;2023-04-24T00:01:01;1.87;;;1.13;;
4519;SDS011;2272;49.226;8.108;2023-04-24T00:03:28;5.33;;;1.50;;
4519;SDS011;2272;49.226;8.108;2023-04-24T00:05:55;1.47;;;1.27;;
4519;SDS011;2272;49.226;8.108;2023-04-24T00:08:23;3.37;;;1.37;;
4519;SDS011;2272;49.226;8.108;2023-04-24T00:10:50;3.00;;;1.70;;
4519;SDS011;2272;49.226;8.108;2023-04-24T00:13:18;1.40;;;1.30;;
4519;SDS011;2272;49.226;8.108;2023-04-24T00:15:44;4.43;;;1.93;;
4519;SDS011;2272;49.226;8.108;2023-04-24T00:18:12;1.20;;;1.10;;
4519;SDS011;2272;49.226;8.108;2023-04-24T00:20:39;1.20;;;1.10;;
4519;SDS011;2272;49.226;8.108;2023-04-24T00:23:06;2.90;;;1.93;;
4519;SDS011;2272;49.226;8.108;2023-04-24T00:25:33;1.73;;;1.50;;
4519;SDS011;2272;49.226;8.108;2023-04-24T00:28:00;3.63;;;1.37;;
4519;SDS011;2272;49.226;8.108;2023-04-24T00:30:27;2.07;;;1.30;;
4519;SDS011;2272;49.226;8.108;2023-04-24T00:32:54;1.83;;;1.57;;
4519;SDS011;2272;49.226;8.108;2023-04-24T00:35:22;1.73;;;1.10;;
4519;SDS011;2272;49.226;8.108;2023-04-24T00:37:49;2.93;;;1.43;;
4519;SDS011;2272;49.226;8.108;2023-04-24T00:40:16;9.83;;;1.50;;
4519;SDS011;2272;49.226;8.108;2023-04-24T00:42:43;1.63;;;1.53;;
4519;SDS011;2272;49.226;8.108;2023-04-24T00:45:10;1.70;;;1.60;;
4519;SDS011;2272;49.226;8.108;2023-04-24T00:47:37;3.13;;;1.57;;
4519;SDS011;2272;49.226;8.108;2023-04-24T00:50:05;6.37;;;1.50;;
4519;SDS011;2272;49.226;8.108;2023-04-24T00:52:34;1.67;;;1.57;;
4519;SDS011;2272;49.226;8.108;2023-04-24T00:55:02;1.57;;;1.40;;
4519;SDS011;2272;49.226;8.108;2023-04-24T00:57:29;1.17;;;1.17;;
4519;SDS011;2272;49.226;8.108;2023-04-24T00:59:56;1.80;;;1.70;;
4519;SDS011;2272;49.226;8.108;2023-04-24T01:02:23;1.07;;;1.07;;
4519;SDS011;2272;49.226;8.108;2023-04-24T01:04:51;2.90;;;2.10;;
4519;SDS011;2272;49.226;8.108;2023-04-24T01:07:18;2.97;;;2.40;;
4519;SDS011;2272;49.226;8.108;2023-04-24T01:09:47;3.60;;;1.43;;
4519;SDS011;2272;49.226;8.108;2023-04-24T01:12:16;2.03;;;1.60;;
4519;SDS011;2272;49.226;8.108;2023-04-24T01:14:42;1.57;;;1.47;;
4519;SDS011;2272;49.226;8.108;2023-04-24T01:17:09;2.10;;;1.90;;
4519;SDS011;2272;49.226;8.108;2023-04-24T01:19:36;2.87;;;2.10;;
4519;SDS011;2272;49.226;8.108;2023-04-24T01:22:08;2.17;;;2.07;;
4519;SDS011;2272;49.226;8.108;2023-04-24T01:24:36;1.90;;;1.80;;
4519;SDS011;2272;49.226;8.108;2023-04-24T01:27:03;1.73;;;1.60;;
4519;SDS011;2272;49.226;8.108;2023-04-24T01:29:30;5.27;;;2.10;;
4519;SDS011;2272;49.226;8.108;2023-04-24T01:31:57;1.50;;;1.40;;
4519;SDS011;2272;49.226;8.108;2023-04-24T01:34:24;1.27;;;1.27;;
4519;SDS011;2272;49.226;8.108;2023-04-24T01:36:52;1.37;;;1.27;;
4519;SDS011;2272;49.226;8.108;2023-04-24T01:39:20;1.83;;;1.47;;
4519;SDS011;2272;49.226;8.108;2023-04-24T01:41:48;8.47;;;2.00;;
4519;SDS011;2272;49.226;8.108;2023-04-24T01:44:15;1.77;;;1.67;;
4519;SDS011;2272;49.226;8.108;2023-04-24T01:46:42;1.60;;;1.50;;
4519;SDS011;2272;49.226;8.108;2023-04-24T01:49:09;6.13;;;2.30;;
4519;SDS011;2272;49.226;8.108;2023-04-24T01:51:36;3.23;;;1.67;;
4519;SDS011;2272;49.226;8.108;2023-04-24T01:54:03;3.67;;;2.10;;
4519;SDS011;2272;49.226;8.108;2023-04-24T01:56:31;3.30;;;1.80;;
4519;SDS011;2272;49.226;8.108;2023-04-24T01:58:59;11.00;;;2.40;;
4519;SDS011;2272;49.226;8.108;2023-04-24T02:01:32;3.03;;;2.10;;
4519;SDS011;2272;49.226;8.108;2023-04-24T02:04:00;3.33;;;1.70;;
4519;SDS011;2272;49.226;8.108;2023-04-24T02:06:27;2.40;;;1.73;;
4519;SDS011;2272;49.226;8.108;2023-04-24T02:08:53;2.73;;;2.10;;
4519;SDS011;2272;49.226;8.108;2023-04-24T02:11:20;2.13;;;2.03;;
4519;SDS011;2272;49.226;8.108;2023-04-24T02:13:48;2.30;;;1.90;;
4519;SDS011;2272;49.226;8.108;2023-04-24T02:16:15;3.80;;;2.33;;
4519;SDS011;2272;49.226;8.108;2023-04-24T02:18:42;4.83;;;2.20;;
4519;SDS011;2272;49.226;8.108;2023-04-24T02:21:08;2.20;;;2.00;;
4519;SDS011;2272;49.226;8.108;2023-04-24T02:23:35;8.23;;;2.00;;
4519;SDS011;2272;49.226;8.108;2023-04-24T02:26:04;8.33;;;2.40;;
4519;SDS011;2272;49.226;8.108;2023-04-24T02:28:31;5.87;;;2.57;;
4519;SDS011;2272;49.226;8.108;2023-04-24T02:30:59;4.10;;;1.67;;
4519;SDS011;2272;49.226;8.108;2023-04-24T02:33:26;5.57;;;1.67;;
4519;SDS011;2272;49.226;8.108;2023-04-24T02:35:52;2.80;;;1.50;;
4519;SDS011;2272;49.226;8.108;2023-04-24T02:38:19;4.00;;;1.30;;
4519;SDS011;2272;49.226;8.108;2023-04-24T02:40:46;3.80;;;1.73;;
4519;SDS011;2272;49.226;8.108;2023-04-24T02:43:12;1.73;;;1.60;;
4519;SDS011;2272;49.226;8.108;2023-04-24T02:45:39;1.47;;;1.37;;
4519;SDS011;2272;49.226;8.108;2023-04-24T02:48:07;1.67;;;1.40;;
4519;SDS011;2272;49.226;8.108;2023-04-24T02:50:34;3.07;;;2.07;;
4519;SDS011;2272;49.226;8.108;2023-04-24T02:53:01;1.80;;;1.70;;
4519;SDS011;2272;49.226;8.108;2023-04-24T02:55:27;3.70;;;1.97;;
4519;SDS011;2272;49.226;8.108;2023-04-24T02:57:54;1.50;;;1.40;;
4519;SDS011;2272;49.226;8.108;2023-04-24T03:00:21;1.47;;;1.37;;
4519;SDS011;2272;49.226;8.108;2023-04-24T03:02:47;3.60;;;1.70;;
4519;SDS011;2272;49.226;8.108;2023-04-24T03:05:16;2.73;;;1.90;;
4519;SDS011;2272;49.226;8.108;2023-04-24T03:07:42;1.73;;;1.67;;
4519;SDS011;2272;49.226;8.108;2023-04-24T03:10:10;2.23;;;1.87;;
4519;SDS011;2272;49.226;8.108;2023-04-24T03:12:37;6.63;;;1.97;;
4519;SDS011;2272;49.226;8.108;2023-04-24T03:15:04;1.80;;;1.70;;
4519;SDS011;2272;49.226;8.108;2023-04-24T03:17:31;1.30;;;1.30;;
4519;SDS011;2272;49.226;8.108;2023-04-24T03:19:57;3.37;;;1.97;;
4519;SDS011;2272;49.226;8.108;2023-04-24T03:22:25;4.77;;;2.17;;
4519;SDS011;2272;49.226;8.108;2023-04-24T03:24:52;2.07;;;1.90;;
4519;SDS011;2272;49.226;8.108;2023-04-24T03:27:19;3.17;;;2.17;;
4519;SDS011;2272;49.226;8.108;2023-04-24T03:29:46;2.07;;;1.87;;
4519;SDS011;2272;49.226;8.108;2023-04-24T03:32:13;1.90;;;1.80;;
4519;SDS011;2272;49.226;8.108;2023-04-24T03:34:39;1.67;;;1.67;;
4519;SDS011;2272;49.226;8.108;2023-04-24T03:37:06;2.30;;;2.20;;
4519;SDS011;2272;49.226;8.108;2023-04-24T03:39:34;2.50;;;2.40;;
4519;SDS011;2272;49.226;8.108;2023-04-24T03:42:00;2.13;;;1.97;;
4519;SDS011;2272;49.226;8.108;2023-04-24T03:44:28;2.30;;;2.10;;
4519;SDS011;2272;49.226;8.108;2023-04-24T03:46:54;2.80;;;2.17;;
4519;SDS011;2272;49.226;8.108;2023-04-24T03:49:21;2.30;;;2.20;;
4519;SDS011;2272;49.226;8.108;2023-04-24T03:51:48;2.47;;;2.37;;
4519;SDS011;2272;49.226;8.108;2023-04-24T03:54:14;24.17;;;2.10;;
4519;SDS011;2272;49.226;8.108;2023-04-24T03:56:42;2.23;;;2.13;;
4519;SDS011;2272;49.226;8.108;2023-04-24T03:59:09;5.07;;;2.70;;
4519;SDS011;2272;49.226;8.108;2023-04-24T04:01:36;2.90;;;2.70;;
4519;SDS011;2272;49.226;8.108;2023-04-24T04:04:03;2.83;;;2.70;;
4519;SDS011;2272;49.226;8.108;2023-04-24T04:06:29;9.80;;;2.70;;
4519;SDS011;2272;49.226;8.108;2023-04-24T04:08:56;3.57;;;3.27;;
4519;SDS011;2272;49.226;8.108;2023-04-24T04:11:24;6.20;;;3.23;;
4519;SDS011;2272;49.226;8.108;2023-04-24T04:13:52;2.90;;;2.80;;
4519;SDS011;2272;49.226;8.108;2023-04-24T04:16:18;2.40;;;2.30;;
4519;SDS011;2272;49.226;8.108;2023-04-24T04:18:45;5.23;;;2.90;;
4519;SDS011;2272;49.226;8.108;2023-04-24T04:21:12;3.60;;;3.30;;
4519;SDS011;2272;49.226;8.108;2023-04-24T04:23:38;3.47;;;3.17;;
4519;SDS011;2272;49.226;8.108;2023-04-24T04:26:05;3.53;;;2.60;;
4519;SDS011;2272;49.226;8.108;2023-04-24T04:28:33;3.70;;;3.27;;
4519;SDS011;2272;49.226;8.108;2023-04-24T04:31:01;3.57;;;3.27;;
4519;SDS011;2272;49.226;8.108;2023-04-24T04:33:27;2.90;;;2.60;;
4519;SDS011;2272;49.226;8.108;2023-04-24T04:35:54;3.60;;;3.40;;
4519;SDS011;2272;49.226;8.108;2023-04-24T04:38:22;5.37;;;3.40;;
4519;SDS011;2272;49.226;8.108;2023-04-24T04:40:49;4.70;;;3.40;;
4519;SDS011;2272;49.226;8.108;2023-04-24T04:43:16;3.43;;;3.23;;
4519;SDS011;2272;49.226;8.108;2023-04-24T04:45:42;5.90;;;3.90;;
4519;SDS011;2272;49.226;8.108;2023-04-24T04:48:11;7.13;;;3.13;;
4519;SDS011;2272;49.226;8.108;2023-04-24T04:50:38;3.97;;;3.67;;
4519;SDS011;2272;49.226;8.108;2023-04-24T04:53:05;3.67;;;3.37;;
4519;SDS011;2272;49.226;8.108;2023-04-24T04:55:32;3.83;;;3.63;;
4519;SDS011;2272;49.226;8.108;2023-04-24T04:57:59;3.80;;;3.60;;
4519;SDS011;2272;49.226;8.108;2023-04-24T05:00:26;4.43;;;3.80;;
4519;SDS011;2272;49.226;8.108;2023-04-24T05:02:54;4.27;;;3.97;;
4519;SDS011;2272;49.226;8.108;2023-04-24T05:05:22;4.83;;;3.50;;
4519;SDS011;2272;49.226;8.108;2023-04-24T05:07:48;5.20;;;3.73;;
4519;SDS011;2272;49.226;8.108;2023-04-24T05:10:15;3.37;;;3.17;;
4519;SDS011;2272;49.226;8.108;2023-04-24T05:12:42;4.20;;;3.80;;
4519;SDS011;2272;49.226;8.108;2023-04-24T05:15:09;4.40;;;3.70;;
4519;SDS011;2272;49.226;8.108;2023-04-24T05:17:36;3.33;;;3.17;;
4519;SDS011;2272;49.226;8.108;2023-04-24T05:20:05;3.90;;;3.70;;
4519;SDS011;2272;49.226;8.108;2023-04-24T05:22:34;3.30;;;3.10;;
4519;SDS011;2272;49.226;8.108;2023-04-24T05:25:01;3.90;;;3.60;;
4519;SDS011;2272;49.226;8.108;2023-04-24T05:27:27;3.37;;;3.17;;
4519;SDS011;2272;49.226;8.108;2023-04-24T05:29:54;4.03;;;3.73;;
4519;SDS011;2272;49.226;8.108;2023-04-24T05:32:21;4.63;;;3.30;;
4519;SDS011;2272;49.226;8.108;2023-04-24T05:34:48;2.93;;;2.80;;
4519;SDS011;2272;49.226;8.108;2023-04-24T05:37:15;6.13;;;3.20;;
4519;SDS011;2272;49.226;8.108;2023-04-24T05:39:43;4.63;;;3.47;;
4519;SDS011;2272;49.226;8.108;2023-04-24T05:42:09;3.70;;;3.33;;
4519;SDS011;2272;49.226;8.108;2023-04-24T05:44:36;3.13;;;2.93;;
4519;SDS011;2272;49.226;8.108;2023-04-24T05:47:03;2.93;;;2.60;;
4519;SDS011;2272;49.226;8.108;2023-04-24T05:49:30;5.80;;;2.80;;
4519;SDS011;2272;49.226;8.108;2023-04-24T05:51:56;3.10;;;2.90;;
4519;SDS011;2272;49.226;8.108;2023-04-24T05:54:23;2.93;;;2.73;;
4519;SDS011;2272;49.226;8.108;2023-04-24T05:56:51;2.70;;;2.60;;
4519;SDS011;2272;49.226;8.108;2023-04-24T05:59:19;3.53;;;3.23;;
4519;SDS011;2272;49.226;8.108;2023-04-24T06:01:46;4.30;;;3.90;;
4519;SDS011;2272;49.226;8.108;2023-04-24T06:04:13;3.13;;;2.93;;
4519;SDS011;2272;49.226;8.108;2023-04-24T06:06:39;7.73;;;3.10;;
4519;SDS011;2272;49.226;8.108;2023-04-24T06:09:06;3.23;;;2.57;;
4519;SDS011;2272;49.226;8.108;2023-04-24T06:11:33;8.43;;;3.00;;
4519;SDS011;2272;49.226;8.108;2023-04-24T06:14:01;4.63;;;2.83;;
4519;SDS011;2272;49.226;8.108;2023-04-24T06:16:27;2.90;;;2.70;;
4519;SDS011;2272;49.226;8.108;2023-04-24T06:19:03;2.23;;;2.13;;
4519;SDS011;2272;49.226;8.108;2023-04-24T06:21:30;2.10;;;2.00;;
4519;SDS011;2272;49.226;8.108;2023-04-24T06:23:57;2.60;;;2.50;;
4519;SDS011;2272;49.226;8.108;2023-04-24T06:26:24;2.67;;;2.13;;
4519;SDS011;2272;49.226;8.108;2023-04-24T06:28:51;2.63;;;2.53;;
4519;SDS011;2272;49.226;8.108;2023-04-24T06:31:20;2.27;;;2.17;;
4519;SDS011;2272;49.226;8.108;2023-04-24T06:33:47;2.67;;;2.47;;
4519;SDS011;2272;49.226;8.108;2023-04-24T06:36:14;2.50;;;2.23;;
4519;SDS011;2272;49.226;8.108;2023-04-24T06:38:41;1.70;;;1.60;;
4519;SDS011;2272;49.226;8.108;2023-04-24T06:41:08;2.30;;;2.10;;
4519;SDS011;2272;49.226;8.108;2023-04-24T06:43:35;2.70;;;1.83;;
4519;SDS011;2272;49.226;8.108;2023-04-24T06:46:02;1.83;;;1.60;;
4519;SDS011;2272;49.226;8.108;2023-04-24T06:48:30;2.20;;;1.70;;
4519;SDS011;2272;49.226;8.108;2023-04-24T06:50:57;2.23;;;1.90;;
4519;SDS011;2272;49.226;8.108;2023-04-24T06:53:23;2.80;;;2.20;;
4519;SDS011;2272;49.226;8.108;2023-04-24T06:55:50;2.53;;;2.30;;
4519;SDS011;2272;49.226;8.108;2023-04-24T06:58:17;2.37;;;2.17;;
4519;SDS011;2272;49.226;8.108;2023-04-24T07:00:44;5.13;;;2.10;;
4519;SDS011;2272;49.226;8.108;2023-04-24T07:03:10;2.40;;;2.27;;
4519;SDS011;2272;49.226;8.108;2023-04-24T07:05:38;3.53;;;2.20;;
4519;SDS011;2272;49.226;8.108;2023-04-24T07:08:06;5.57;;;2.00;;
4519;SDS011;2272;49.226;8.108;2023-04-24T07:10:36;2.50;;;2.40;;
4519;SDS011;2272;49.226;8.108;2023-04-24T07:13:03;2.33;;;2.23;;
4519;SDS011;2272;49.226;8.108;2023-04-24T07:15:29;4.77;;;2.73;;
4519;SDS011;2272;49.226;8.108;2023-04-24T07:17:57;2.73;;;2.53;;
4519;SDS011;2272;49.226;8.108;2023-04-24T07:20:24;3.63;;;2.50;;
4519;SDS011;2272;49.226;8.108;2023-04-24T07:22:52;6.77;;;3.00;;
4519;SDS011;2272;49.226;8.108;2023-04-24T07:25:19;3.50;;;2.67;;
4519;SDS011;2272;49.226;8.108;2023-04-24T07:27:47;2.40;;;2.30;;
4519;SDS011;2272;49.226;8.108;2023-04-24T07:30:14;2.10;;;2.00;;
4519;SDS011;2272;49.226;8.108;2023-04-24T07:32:40;3.60;;;2.40;;
4519;SDS011;2272;49.226;8.108;2023-04-24T07:35:08;3.10;;;2.43;;
4519;SDS011;2272;49.226;8.108;2023-04-24T07:37:35;2.60;;;2.43;;
4519;SDS011;2272;49.226;8.108;2023-04-24T07:40:03;2.30;;;2.20;;
4519;SDS011;2272;49.226;8.108;2023-04-24T07:42:31;2.30;;;2.20;;
4519;SDS011;2272;49.226;8.108;2023-04-24T07:44:59;1.60;;;1.60;;
4519;SDS011;2272;49.226;8.108;2023-04-24T07:47:26;2.97;;;2.20;;
4519;SDS011;2272;49.226;8.108;2023-04-24T07:49:53;2.00;;;1.90;;
4519;SDS011;2272;49.226;8.108;2023-04-24T07:52:19;2.13;;;2.03;;
4519;SDS011;2272;49.226;8.108;2023-04-24T07:54:46;1.60;;;1.50;;
4519;SDS011;2272;49.226;8.108;2023-04-24T07:57:16;2.40;;;2.30;;
4519;SDS011;2272;49.226;8.108;2023-04-24T07:59:42;3.30;;;2.13;;
4519;SDS011;2272;49.226;8.108;2023-04-24T08:02:09;2.00;;;1.60;;
4519;SDS011;2272;49.226;8.108;2023-04-24T08:04:36;1.57;;;1.47;;
4519;SDS011;2272;49.226;8.108;2023-04-24T08:07:03;2.20;;;1.40;;
4519;SDS011;2272;49.226;8.108;2023-04-24T08:09:30;1.30;;;1.30;;
4519;SDS011;2272;49.226;8.108;2023-04-24T08:11:56;1.50;;;1.43;;
4519;SDS011;2272;49.226;8.108;2023-04-24T08:14:25;1.60;;;1.50;;
4519;SDS011;2272;49.226;8.108;2023-04-24T08:16:52;2.20;;;1.90;;
4519;SDS011;2272;49.226;8.108;2023-04-24T08:19:20;1.77;;;1.63;;
4519;SDS011;2272;49.226;8.108;2023-04-24T08:21:46;1.80;;;1.57;;
4519;SDS011;2272;49.226;8.108;2023-04-24T08:24:13;2.30;;;2.10;;
4519;SDS011;2272;49.226;8.108;2023-04-24T08:26:40;1.90;;;1.80;;
4519;SDS011;2272;49.226;8.108;2023-04-24T08:29:06;1.80;;;1.70;;
4519;SDS011;2272;49.226;8.108;2023-04-24T08:31:35;2.63;;;1.67;;
4519;SDS011;2272;49.226;8.108;2023-04-24T08:34:01;3.37;;;2.37;;
4519;SDS011;2272;49.226;8.108;2023-04-24T08:36:28;2.30;;;1.33;;
4519;SDS011;2272;49.226;8.108;2023-04-24T08:38:56;1.47;;;1.40;;
4519;SDS011;2272;49.226;8.108;2023-04-24T08:41:22;2.30;;;1.60;;
4519;SDS011;2272;49.226;8.108;2023-04-24T08:43:51;2.40;;;1.90;;
4519;SDS011;2272;49.226;8.108;2023-04-24T08:46:18;2.03;;;1.90;;
4519;SDS011;2272;49.226;8.108;2023-04-24T08:48:47;1.73;;;1.63;;
4519;SDS011;2272;49.226;8.108;2023-04-24T08:51:15;2.37;;;2.20;;
4519;SDS011;2272;49.226;8.108;2023-04-24T08:53:43;4.80;;;3.00;;
4519;SDS011;2272;49.226;8.108;2023-04-24T08:56:12;3.87;;;2.40;;
4519;SDS011;2272;49.226;8.108;2023-04-24T08:58:39;3.47;;;2.50;;
4519;SDS011;2272;49.226;8.108;2023-04-24T09:01:07;4.70;;;2.60;;
4519;SDS011;2272;49.226;8.108;2023-04-24T09:03:34;3.90;;;3.40;;
4519;SDS011;2272;49.226;8.108;2023-04-24T09:06:03;2.80;;;2.60;;
4519;SDS011;2272;49.226;8.108;2023-04-24T09:08:35;3.40;;;3.20;;
4519;SDS011;2272;49.226;8.108;2023-04-24T09:11:02;5.83;;;2.60;;
4519;SDS011;2272;49.226;8.108;2023-04-24T09:13:30;3.57;;;3.27;;
4519;SDS011;2272;49.226;8.108;2023-04-24T09:15:57;3.00;;;2.90;;
4519;SDS011;2272;49.226;8.108;2023-04-24T09:18:25;3.80;;;3.50;;
4519;SDS011;2272;49.226;8.108;2023-04-24T09:20:59;4.83;;;3.13;;
4519;SDS011;2272;49.226;8.108;2023-04-24T09:23:29;4.07;;;3.77;;
4519;SDS011;2272;49.226;8.108;2023-04-24T09:25:56;4.17;;;3.77;;
4519;SDS011;2272;49.226;8.108;2023-04-24T09:28:25;4.40;;;3.03;;
4519;SDS011;2272;49.226;8.108;2023-04-24T09:31:02;3.70;;;3.50;;
4519;SDS011;2272;49.226;8.108;2023-04-24T09:33:31;4.43;;;3.57;;
4519;SDS011;2272;49.226;8.108;2023-04-24T09:35:58;4.13;;;2.90;;
4519;SDS011;2272;49.226;8.108;2023-04-24T09:38:33;3.77;;;3.40;;
4519;SDS011;2272;49.226;8.108;2023-04-24T09:41:02;10.80;;;3.73;;
4519;SDS011;2272;49.226;8.108;2023-04-24T09:43:30;5.47;;;3.47;;
4519;SDS011;2272;49.226;8.108;2023-04-24T09:45:58;12.40;;;3.23;;
4519;SDS011;2272;49.226;8.108;2023-04-24T09:48:30;3.47;;;3.17;;
4519;SDS011;2272;49.226;8.108;2023-04-24T09:50:58;2.67;;;2.47;;
4519;SDS011;2272;49.226;8.108;2023-04-24T09:53:27;8.50;;;3.80;;
4519;SDS011;2272;49.226;8.108;2023-04-24T09:55:55;3.30;;;3.03;;
4519;SDS011;2272;49.226;8.108;2023-04-24T09:58:25;3.17;;;2.97;;
4519;SDS011;2272;49.226;8.108;2023-04-24T10:00:53;7.70;;;3.40;;
4519;SDS011;2272;49.226;8.108;2023-04-24T10:03:23;3.17;;;2.97;;
4519;SDS011;2272;49.226;8.108;2023-04-24T10:05:51;3.10;;;2.90;;
4519;SDS011;2272;49.226;8.108;2023-04-24T10:08:18;3.50;;;3.20;;
4519;SDS011;2272;49.226;8.108;2023-04-24T10:10:46;3.90;;;3.70;;
4519;SDS011;2272;49.226;8.108;2023-04-24T10:13:14;5.03;;;3.20;;
4519;SDS011;2272;49.226;8.108;2023-04-24T10:15:41;4.30;;;3.53;;
4519;SDS011;2272;49.226;8.108;2023-04-24T10:18:08;7.13;;;3.40;;
4519;SDS011;2272;49.226;8.108;2023-04-24T10:20:36;3.20;;;3.00;;
4519;SDS011;2272;49.226;8.108;2023-04-24T10:23:04;6.17;;;3.87;;
4519;SDS011;2272;49.226;8.108;2023-04-24T10:25:32;4.10;;;3.47;;
4519;SDS011;2272;49.226;8.108;2023-04-24T10:28:03;4.00;;;3.27;;
4519;SDS011;2272;49.226;8.108;2023-04-24T10:30:32;3.83;;;3.27;;
4519;SDS011;2272;49.226;8.108;2023-04-24T10:33:01;3.70;;;3.50;;
4519;SDS011;2272;49.226;8.108;2023-04-24T10:35:30;4.90;;;4.50;;
4519;SDS011;2272;49.226;8.108;2023-04-24T10:37:59;4.03;;;3.70;;
4519;SDS011;2272;49.226;8.108;2023-04-24T10:40:30;4.77;;;4.03;;
4519;SDS011;2272;49.226;8.108;2023-04-24T10:42:58;4.27;;;3.87;;
4519;SDS011;2272;49.226;8.108;2023-04-24T10:45:26;3.90;;;3.70;;
4519;SDS011;2272;49.226;8.108;2023-04-24T10:47:54;4.37;;;3.80;;
4519;SDS011;2272;49.226;8.108;2023-04-24T10:50:25;3.40;;;3.20;;
4519;SDS011;2272;49.226;8.108;2023-04-24T10:52:52;3.40;;;3.20;;
4519;SDS011;2272;49.226;8.108;2023-04-24T10:55:40;6.63;;;4.33;;
4519;SDS011;2272;49.226;8.108;2023-04-24T10:58:08;5.30;;;3.87;;
4519;SDS011;2272;49.226;8.108;2023-04-24T11:00:36;4.00;;;3.70;;
4519;SDS011;2272;49.226;8.108;2023-04-24T11:03:05;3.53;;;3.23;;
4519;SDS011;2272;49.226;8.108;2023-04-24T11:08:23;4.30;;;3.90;;
4519;SDS011;2272;49.226;8.108;2023-04-24T11:10:56;7.23;;;4.00;;
4519;SDS011;2272;49.226;8.108;2023-04-24T11:13:25;3.30;;;3.03;;
4519;SDS011;2272;49.226;8.108;2023-04-24T11:18:40;5.93;;;4.67;;
4519;SDS011;2272;49.226;8.108;2023-04-24T11:21:10;3.40;;;3.10;;
4519;SDS011;2272;49.226;8.108;2023-04-24T11:23:38;4.43;;;3.50;;
4519;SDS011;2272;49.226;8.108;2023-04-24T11:26:12;5.30;;;3.33;;
4519;SDS011;2272;49.226;8.108;2023-04-24T11:28:46;6.73;;;3.57;;
4519;SDS011;2272;49.226;8.108;2023-04-24T11:34:10;8.20;;;4.30;;
4519;SDS011;2272;49.226;8.108;2023-04-24T11:36:39;4.03;;;3.73;;
4519;SDS011;2272;49.226;8.108;2023-04-24T11:39:06;6.80;;;5.03;;
4519;SDS011;2272;49.226;8.108;2023-04-24T11:41:33;3.23;;;3.00;;
4519;SDS011;2272;49.226;8.108;2023-04-24T11:44:02;3.47;;;3.17;;
4519;SDS011;2272;49.226;8.108;2023-04-24T11:46:32;3.57;;;3.37;;
4519;SDS011;2272;49.226;8.108;2023-04-24T11:48:59;4.00;;;3.60;;
4519;SDS011;2272;49.226;8.108;2023-04-24T11:51:27;3.70;;;3.40;;
4519;SDS011;2272;49.226;8.108;2023-04-24T11:53:54;5.67;;;4.10;;
4519;SDS011;2272;49.226;8.108;2023-04-24T11:56:22;4.80;;;3.40;;
4519;SDS011;2272;49.226;8.108;2023-04-24T11:58:51;3.37;;;3.10;;
4519;SDS011;2272;49.226;8.108;2023-04-24T12:01:19;3.40;;;3.00;;
4519;SDS011;2272;49.226;8.108;2023-04-24T12:03:47;4.10;;;3.30;;
4519;SDS011;2272;49.226;8.108;2023-04-24T12:06:15;4.63;;;2.93;;
4519;SDS011;2272;49.226;8.108;2023-04-24T12:08:49;8.37;;;3.13;;
4519;SDS011;2272;49.226;8.108;2023-04-24T12:11:20;3.27;;;2.97;;
4519;SDS011;2272;49.226;8.108;2023-04-24T12:13:48;3.30;;;3.10;;
4519;SDS011;2272;49.226;8.108;2023-04-24T12:16:15;4.77;;;2.70;;
4519;SDS011;2272;49.226;8.108;2023-04-24T12:18:43;8.43;;;3.70;;
4519;SDS011;2272;49.226;8.108;2023-04-24T12:21:17;3.60;;;3.30;;
4519;SDS011;2272;49.226;8.108;2023-04-24T12:23:45;3.57;;;3.27;;
4519;SDS011;2272;49.226;8.108;2023-04-24T12:26:14;3.47;;;3.10;;
4519;SDS011;2272;49.226;8.108;2023-04-24T12:28:46;5.20;;;3.27;;
4519;SDS011;2272;49.226;8.108;2023-04-24T12:31:15;3.90;;;3.10;;
4519;SDS011;2272;49.226;8.108;2023-04-24T12:33:42;7.00;;;3.80;;
4519;SDS011;2272;49.226;8.108;2023-04-24T12:36:10;9.60;;;3.30;;
4519;SDS011;2272;49.226;8.108;2023-04-24T12:38:38;3.70;;;3.50;;
4519;SDS011;2272;49.226;8.108;2023-04-24T12:41:09;3.77;;;3.17;;
4519;SDS011;2272;49.226;8.108;2023-04-24T12:43:40;6.50;;;3.40;;
4519;SDS011;2272;49.226;8.108;2023-04-24T12:46:20;4.63;;;3.30;;
4519;SDS011;2272;49.226;8.108;2023-04-24T12:48:47;4.10;;;2.80;;
4519;SDS011;2272;49.226;8.108;2023-04-24T12:51:15;4.37;;;3.20;;
4519;SDS011;2272;49.226;8.108;2023-04-24T12:53:41;7.07;;;2.87;;
4519;SDS011;2272;49.226;8.108;2023-04-24T12:56:08;4.00;;;2.90;;
4519;SDS011;2272;49.226;8.108;2023-04-24T12:58:35;3.27;;;2.90;;
4519;SDS011;2272;49.226;8.108;2023-04-24T13:01:04;3.30;;;3.00;;
4519;SDS011;2272;49.226;8.108;2023-04-24T13:03:40;4.07;;;2.97;;
4519;SDS011;2272;49.226;8.108;2023-04-24T13:06:07;5.13;;;2.60;;
4519;SDS011;2272;49.226;8.108;2023-04-24T13:08:34;3.87;;;2.83;;
4519;SDS011;2272;49.226;8.108;2023-04-24T13:11:00;2.90;;;2.70;;
4519;SDS011;2272;49.226;8.108;2023-04-24T13:13:27;3.90;;;2.90;;
4519;SDS011;2272;49.226;8.108;2023-04-24T13:15:54;7.00;;;3.20;;
4519;SDS011;2272;49.226;8.108;2023-04-24T13:18:22;3.83;;;3.57;;
4519;SDS011;2272;49.226;8.108;2023-04-24T13:20:51;3.37;;;3.17;;
4519;SDS011;2272;49.226;8.108;2023-04-24T13:23:17;3.27;;;3.07;;
4519;SDS011;2272;49.226;8.108;2023-04-24T13:25:45;3.60;;;3.30;;
4519;SDS011;2272;49.226;8.108;2023-04-24T13:28:12;6.40;;;3.13;;
4519;SDS011;2272;49.226;8.108;2023-04-24T13:30:40;5.90;;;3.07;;
4519;SDS011;2272;49.226;8.108;2023-04-24T13:33:12;3.00;;;2.70;;
4519;SDS011;2272;49.226;8.108;2023-04-24T13:35:44;7.30;;;3.70;;
4519;SDS011;2272;49.226;8.108;2023-04-24T13:38:14;3.03;;;2.83;;
4519;SDS011;2272;49.226;8.108;2023-04-24T13:40:46;4.73;;;2.90;;
4519;SDS011;2272;49.226;8.108;2023-04-24T13:43:13;3.43;;;2.80;;
4519;SDS011;2272;49.226;8.108;2023-04-24T13:45:40;2.90;;;2.57;;
4519;SDS011;2272;49.226;8.108;2023-04-24T13:48:07;5.40;;;3.50;;
4519;SDS011;2272;49.226;8.108;2023-04-24T13:50:34;3.50;;;3.10;;
4519;SDS011;2272;49.226;8.108;2023-04-24T13:53:03;2.90;;;2.70;;
4519;SDS011;2272;49.226;8.108;2023-04-24T13:55:30;3.00;;;2.83;;
4519;SDS011;2272;49.226;8.108;2023-04-24T13:57:57;3.90;;;3.50;;
4519;SDS011;2272;49.226;8.108;2023-04-24T14:00:24;4.30;;;2.67;;
4519;SDS011;2272;49.226;8.108;2023-04-24T14:02:51;4.20;;;2.97;;
4519;SDS011;2272;49.226;8.108;2023-04-24T14:05:17;4.83;;;2.80;;
4519;SDS011;2272;49.226;8.108;2023-04-24T14:07:46;4.30;;;2.80;;
4519;SDS011;2272;49.226;8.108;2023-04-24T14:10:14;4.60;;;3.53;;
4519;SDS011;2272;49.226;8.108;2023-04-24T14:12:40;2.97;;;2.77;;
4519;SDS011;2272;49.226;8.108;2023-04-24T14:15:07;5.67;;;3.30;;
4519;SDS011;2272;49.226;8.108;2023-04-24T14:17:35;4.37;;;3.63;;
4519;SDS011;2272;49.226;8.108;2023-04-24T14:20:02;7.03;;;3.00;;
4519;SDS011;2272;49.226;8.108;2023-04-24T14:22:29;5.30;;;3.50;;
4519;SDS011;2272;49.226;8.108;2023-04-24T14:24:56;3.70;;;3.00;;
4519;SDS011;2272;49.226;8.108;2023-04-24T14:27:25;5.27;;;3.37;;
4519;SDS011;2272;49.226;8.108;2023-04-24T14:29:52;4.00;;;3.57;;
4519;SDS011;2272;49.226;8.108;2023-04-24T14:32:19;3.67;;;3.37;;
4519;SDS011;2272;49.226;8.108;2023-04-24T14:34:45;4.83;;;3.23;;
4519;SDS011;2272;49.226;8.108;2023-04-24T14:37:12;12.90;;;2.97;;
4519;SDS011;2272;49.226;8.108;2023-04-24T14:39:39;3.30;;;3.10;;
4519;SDS011;2272;49.226;8.108;2023-04-24T14:42:06;3.20;;;3.00;;
4519;SDS011;2272;49.226;8.108;2023-04-24T14:44:34;2.73;;;2.63;;
4519;SDS011;2272;49.226;8.108;2023-04-24T14:47:01;3.53;;;3.20;;
4519;SDS011;2272;49.226;8.108;2023-04-24T14:49:31;3.33;;;3.03;;
4519;SDS011;2272;49.226;8.108;2023-04-24T14:51:57;5.97;;;2.40;;
4519;SDS011;2272;49.226;8.108;2023-04-24T14:54:24;7.37;;;3.37;;
4519;SDS011;2272;49.226;8.108;2023-04-24T14:56:51;4.10;;;3.80;;
4519;SDS011;2272;49.226;8.108;2023-04-24T14:59:22;4.07;;;3.67;;
4519;SDS011;2272;49.226;8.108;2023-04-24T15:01:50;7.73;;;4.50;;
4519;SDS011;2272;49.226;8.108;2023-04-24T15:04:17;3.60;;;3.40;;
4519;SDS011;2272;49.226;8.108;2023-04-24T15:06:49;4.63;;;3.60;;
4519;SDS011;2272;49.226;8.108;2023-04-24T15:09:16;3.77;;;3.40;;
4519;SDS011;2272;49.226;8.108;2023-04-24T15:11:43;3.93;;;3.63;;
4519;SDS011;2272;49.226;8.108;2023-04-24T15:14:10;3.00;;;2.73;;
4519;SDS011;2272;49.226;8.108;2023-04-24T15:16:37;2.27;;;2.17;;
4519;SDS011;2272;49.226;8.108;2023-04-24T15:19:05;3.80;;;3.53;;
4519;SDS011;2272;49.226;8.108;2023-04-24T15:21:32;11.00;;;4.97;;
4519;SDS011;2272;49.226;8.108;2023-04-24T15:23:59;5.27;;;4.73;;
4519;SDS011;2272;49.226;8.108;2023-04-24T15:26:26;7.30;;;5.73;;